Weather at Mateo Remas Airport

Public forecast

Using degrees Celsius for public forecast. Weather courtesy of forecast.io.

Closest aviation weather report (METAR) to Mateo Remas Airport

Report is more than 6 hours old.

Closest report is Frank Pais International Airport, 51.5 nm (95.4 km) NE.

2024/06/24 05:50 (retrieved 1 day ago)

MUHG 240550Z 27002KT 8000 FEW030 BKN195 23/23 Q1015

Closest aviation forecast (TAF) to Mateo Remas Airport

Forecast is more than 12 hours old.

Closest forecast is Leeward Point Field, 102.8 nm (190.4 km) E.

2024/06/23 17:13 Ammendment (retrieved 2 days ago)

TAF AMD MUGM 2317/2415 09010KT 9999 VCTS FEW020CB BKN060 BKN250 QNH2990INS TEMPO 2317/2323 VRB15G23KT 4800 TSRA BKN025CB BKN060 FM24000 VRB06KT 9999 BKN150 BKN300 QNH2992INS TX31/2318Z TN26/2406Z AND 1707 FN00276